createdAt,value
2019-03-24T00:02:13.711Z,71.90
2019-03-24T00:04:42.089Z,71.80
2019-03-24T00:07:10.488Z,72.10
2019-03-24T00:09:38.872Z,72.10
2019-03-24T00:12:07.266Z,72.10
2019-03-24T00:14:35.647Z,72.00
2019-03-24T00:17:04.128Z,72.30
2019-03-24T00:19:32.504Z,72.30
2019-03-24T00:22:00.905Z,72.80
2019-03-24T00:24:29.280Z,72.80
2019-03-24T00:26:58.144Z,72.80
2019-03-24T00:29:26.514Z,73.50
2019-03-24T00:31:54.876Z,73.60
2019-03-24T00:34:23.256Z,73.60
2019-03-24T00:36:51.656Z,73.80
2019-03-24T00:39:20.037Z,73.80
2019-03-24T00:41:48.427Z,73.90
2019-03-24T00:44:16.814Z,73.90
2019-03-24T00:46:45.197Z,73.50
2019-03-24T00:49:13.563Z,73.80
2019-03-24T00:51:41.976Z,74.10
2019-03-24T00:54:10.342Z,74.50
2019-03-24T00:56:38.744Z,74.80
2019-03-24T00:59:07.121Z,74.80
2019-03-24T01:01:35.524Z,74.90
2019-03-24T01:04:03.916Z,75.10
2019-03-24T01:06:32.344Z,75.10
2019-03-24T01:09:00.678Z,75.10
2019-03-24T01:11:29.071Z,75.40
2019-03-24T01:13:57.388Z,75.40
2019-03-24T01:16:25.863Z,75.50
2019-03-24T01:18:54.240Z,75.50
2019-03-24T01:21:22.643Z,75.70
2019-03-24T01:23:51.068Z,75.60
2019-03-24T01:26:19.455Z,75.70
2019-03-24T01:28:47.881Z,75.50
2019-03-24T01:31:16.260Z,75.50
2019-03-24T01:33:44.660Z,76.10
2019-03-24T01:36:13.040Z,76.50
2019-03-24T01:38:41.445Z,77.20
2019-03-24T01:41:09.823Z,77.00
2019-03-24T01:43:38.228Z,77.00
2019-03-24T01:46:06.603Z,76.60
2019-03-24T01:48:34.998Z,76.80
2019-03-24T01:51:03.388Z,76.90
2019-03-24T01:53:31.783Z,76.60
2019-03-24T01:56:00.158Z,76.60
2019-03-24T01:58:28.483Z,77.10
2019-03-24T02:00:56.848Z,77.20
2019-03-24T02:03:25.240Z,77.10
2019-03-24T02:05:53.626Z,77.20
2019-03-24T02:08:22.056Z,77.50
2019-03-24T02:10:50.432Z,77.80
2019-03-24T02:13:18.845Z,77.60
2019-03-24T02:15:47.324Z,77.40
2019-03-24T02:18:15.723Z,77.40
2019-03-24T02:20:44.098Z,77.20
2019-03-24T02:23:12.493Z,77.60
2019-03-24T02:25:40.920Z,77.40
2019-03-24T02:28:09.305Z,78.20
2019-03-24T02:30:37.709Z,78.50
2019-03-24T02:33:06.173Z,78.10
2019-03-24T02:35:34.543Z,78.40
2019-03-24T02:38:05.691Z,78.50
2019-03-24T02:40:34.083Z,78.40
2019-03-24T02:43:02.475Z,78.00
2019-03-24T02:45:30.853Z,77.70
2019-03-24T02:47:59.251Z,77.80
2019-03-24T02:50:27.633Z,78.20
2019-03-24T02:52:56.104Z,78.40
2019-03-24T02:55:24.461Z,78.00
2019-03-24T02:57:52.863Z,78.60
2019-03-24T03:00:21.246Z,79.20
2019-03-24T03:02:49.666Z,79.30
2019-03-24T03:05:18.045Z,79.20
2019-03-24T03:07:46.570Z,78.80
2019-03-24T03:10:15.121Z,78.80
2019-03-24T03:12:43.557Z,78.90
2019-03-24T03:15:12.014Z,79.00
2019-03-24T03:17:40.398Z,79.40
2019-03-24T03:20:08.890Z,79.00
2019-03-24T03:22:37.265Z,79.10
2019-03-24T03:25:07.415Z,79.70
2019-03-24T03:27:35.855Z,79.40
2019-03-24T03:30:07.895Z,79.70
2019-03-24T03:32:36.236Z,80.70
2019-03-24T03:35:07.164Z,80.30
2019-03-24T03:37:35.543Z,80.60
2019-03-24T03:40:07.982Z,80.50
2019-03-24T03:42:37.062Z,80.30
2019-03-24T03:45:05.518Z,79.90
2019-03-24T03:47:33.924Z,80.10
2019-03-24T03:50:02.391Z,80.00
2019-03-24T03:52:30.833Z,80.20
2019-03-24T03:54:59.233Z,80.30
2019-03-24T03:57:27.607Z,80.40
2019-03-24T03:59:56.011Z,80.00
2019-03-24T04:02:24.406Z,79.40
2019-03-24T04:04:52.808Z,79.70
2019-03-24T04:07:21.183Z,79.80
2019-03-24T04:09:49.579Z,79.80
2019-03-24T04:12:18.013Z,80.10
2019-03-24T04:14:46.457Z,80.20
2019-03-24T04:17:14.841Z,80.50
2019-03-24T04:19:43.242Z,80.40
2019-03-24T04:22:11.626Z,80.40
2019-03-24T04:24:40.059Z,80.50
2019-03-24T04:27:08.437Z,80.70
2019-03-24T04:29:36.841Z,81.30
2019-03-24T04:32:05.222Z,81.60
2019-03-24T04:34:33.599Z,81.80
2019-03-24T04:37:01.981Z,81.80
2019-03-24T04:39:30.363Z,81.60
2019-03-24T04:41:58.786Z,81.40
2019-03-24T04:44:27.178Z,81.00
2019-03-24T04:46:55.496Z,81.50
2019-03-24T04:49:23.882Z,81.60
2019-03-24T04:51:52.256Z,81.20
2019-03-24T04:54:20.648Z,81.00
2019-03-24T04:56:49.041Z,80.80
2019-03-24T04:59:17.440Z,80.80
2019-03-24T05:01:45.889Z,81.30
2019-03-24T05:04:14.273Z,81.80
2019-03-24T05:06:42.634Z,81.90
2019-03-24T05:09:11.013Z,82.00
2019-03-24T05:11:39.438Z,82.00
2019-03-24T05:14:07.801Z,81.20
2019-03-24T05:16:36.201Z,81.60
2019-03-24T05:19:04.590Z,81.50
2019-03-24T05:21:32.995Z,81.90
2019-03-24T05:24:01.376Z,81.50
2019-03-24T05:26:29.855Z,81.40
2019-03-24T05:28:58.224Z,81.30
2019-03-24T05:31:26.724Z,80.20
2019-03-24T05:33:55.136Z,81.10
2019-03-24T05:36:24.877Z,81.30
2019-03-24T05:38:53.499Z,82.10
2019-03-24T05:41:21.945Z,82.00
2019-03-24T05:43:50.319Z,81.80
2019-03-24T05:46:18.711Z,81.40
2019-03-24T05:48:47.094Z,81.70
2019-03-24T05:51:15.505Z,81.50
2019-03-24T05:53:43.872Z,81.30
2019-03-24T05:56:12.281Z,81.10
2019-03-24T05:58:40.670Z,80.50
2019-03-24T06:01:09.144Z,80.60
2019-03-24T06:03:38.455Z,80.90
2019-03-24T06:06:06.848Z,80.60
2019-03-24T06:08:35.905Z,80.70
2019-03-24T06:11:04.435Z,80.20
2019-03-24T06:13:32.810Z,79.50
2019-03-24T06:16:01.198Z,79.00
2019-03-24T06:18:29.586Z,78.50
2019-03-24T06:20:57.986Z,77.90
2019-03-24T06:23:26.355Z,77.90
2019-03-24T06:25:54.784Z,77.60
2019-03-24T06:28:24.085Z,78.00
2019-03-24T06:30:52.483Z,78.30
2019-03-24T06:33:20.857Z,78.20
2019-03-24T06:35:49.258Z,77.50
2019-03-24T06:38:17.643Z,77.10
2019-03-24T06:40:46.039Z,76.40
2019-03-24T06:43:14.463Z,75.30
2019-03-24T06:45:42.879Z,73.30
2019-03-24T06:48:11.239Z,69.40
2019-03-24T06:50:39.640Z,66.80
2019-03-24T06:53:08.011Z,63.30
2019-03-24T06:55:36.322Z,60.40
2019-03-24T06:58:04.743Z,57.50
2019-03-24T07:00:33.144Z,56.30
2019-03-24T07:03:04.556Z,53.70
2019-03-24T07:05:32.960Z,52.20
2019-03-24T07:08:01.377Z,50.60
2019-03-24T07:10:29.770Z,49.50
2019-03-24T07:12:59.014Z,48.40
2019-03-24T07:15:27.423Z,47.80
2019-03-24T07:17:55.923Z,47.00
2019-03-24T07:20:24.318Z,45.90
2019-03-24T07:22:52.732Z,45.40
2019-03-24T07:25:21.117Z,44.80
2019-03-24T07:27:49.537Z,43.80
2019-03-24T07:30:17.939Z,43.60
2019-03-24T07:32:46.372Z,43.40
2019-03-24T07:35:14.768Z,43.30
2019-03-24T07:37:43.187Z,43.00
2019-03-24T07:40:11.649Z,42.60
2019-03-24T07:42:40.063Z,42.30
2019-03-24T07:45:08.932Z,42.90
2019-03-24T07:47:37.359Z,43.90
2019-03-24T07:50:07.087Z,44.70
2019-03-24T07:52:35.521Z,45.40
2019-03-24T07:55:05.545Z,46.50
2019-03-24T07:57:33.972Z,46.50
2019-03-24T08:00:02.378Z,47.50
2019-03-24T08:02:31.170Z,47.90
2019-03-24T08:04:59.592Z,48.10
2019-03-24T08:07:28.014Z,48.60
2019-03-24T08:09:56.415Z,49.00
2019-03-24T08:12:24.830Z,49.10
2019-03-24T08:14:53.232Z,49.10
2019-03-24T08:17:21.661Z,49.60
2019-03-24T08:19:50.121Z,50.30
2019-03-24T08:22:18.560Z,50.00
2019-03-24T08:24:46.959Z,49.70
2019-03-24T08:27:16.007Z,49.50
2019-03-24T08:29:44.377Z,49.90
2019-03-24T08:32:12.792Z,49.90
2019-03-24T08:34:41.208Z,50.10
2019-03-24T08:37:09.633Z,49.80
2019-03-24T08:39:38.026Z,50.00
2019-03-24T08:42:06.454Z,49.70
2019-03-24T08:44:34.861Z,50.10
2019-03-24T08:47:03.288Z,49.80
2019-03-24T08:49:31.706Z,49.20
2019-03-24T08:52:00.158Z,48.90
2019-03-24T08:54:28.544Z,48.70
2019-03-24T08:56:56.954Z,49.40
2019-03-24T08:59:25.375Z,49.10
2019-03-24T09:01:53.784Z,48.60
2019-03-24T09:04:22.206Z,48.70
2019-03-24T09:06:50.632Z,48.50
2019-03-24T09:09:19.051Z,48.20
2019-03-24T09:11:47.445Z,47.70
2019-03-24T09:14:15.872Z,47.50
2019-03-24T09:16:44.266Z,47.30
2019-03-24T09:19:12.737Z,48.00
2019-03-24T09:21:41.150Z,47.70
2019-03-24T09:24:09.586Z,47.50
2019-03-24T09:26:37.979Z,48.40
2019-03-24T09:29:06.420Z,47.70
2019-03-24T09:31:34.825Z,47.90
2019-03-24T09:34:03.280Z,47.60
2019-03-24T09:36:31.716Z,47.80
2019-03-24T09:39:00.102Z,48.00
2019-03-24T09:41:28.500Z,47.80
2019-03-24T09:43:56.935Z,46.80
2019-03-24T09:46:25.363Z,47.50
2019-03-24T09:49:02.691Z,47.50
2019-03-24T09:51:23.860Z,47.00
2019-03-24T09:53:52.283Z,49.10
2019-03-24T09:56:20.689Z,50.70
2019-03-24T09:58:49.135Z,50.90
2019-03-24T10:01:17.545Z,49.30
2019-03-24T10:03:45.988Z,48.40
2019-03-24T10:06:14.374Z,47.60
2019-03-24T10:08:46.950Z,47.20
2019-03-24T10:11:12.829Z,48.10
2019-03-24T10:13:41.261Z,51.10
2019-03-24T10:16:09.657Z,51.10
2019-03-24T10:18:38.065Z,47.20
2019-03-24T10:21:06.952Z,46.40
2019-03-24T10:23:35.374Z,47.00
2019-03-24T10:26:03.771Z,46.40
2019-03-24T10:28:32.256Z,47.90
2019-03-24T10:31:00.644Z,51.10
2019-03-24T10:33:29.973Z,50.70
2019-03-24T10:35:58.366Z,46.10
2019-03-24T10:38:26.780Z,49.10
2019-03-24T10:40:55.177Z,51.20
2019-03-24T10:43:23.565Z,44.30
2019-03-24T10:45:52.088Z,47.10
2019-03-24T10:48:20.477Z,45.60
2019-03-24T10:50:48.914Z,44.40
2019-03-24T10:53:17.307Z,44.50
2019-03-24T10:55:45.733Z,45.30
2019-03-24T10:58:14.139Z,44.60
2019-03-24T11:00:43.105Z,39.30
2019-03-24T11:03:11.507Z,36.60
2019-03-24T11:05:39.932Z,35.20
2019-03-24T11:08:08.310Z,33.00
2019-03-24T11:10:37.895Z,31.90
2019-03-24T11:13:06.369Z,31.00
2019-03-24T11:15:34.910Z,30.50
2019-03-24T11:18:03.423Z,31.30
2019-03-24T11:20:31.843Z,31.00
2019-03-24T11:23:00.260Z,30.50
2019-03-24T11:25:28.739Z,30.60
2019-03-24T11:27:57.181Z,30.90
2019-03-24T11:30:25.671Z,32.80
2019-03-24T11:32:54.078Z,32.10
2019-03-24T11:35:22.526Z,32.80
2019-03-24T11:37:50.961Z,34.60
2019-03-24T11:40:19.400Z,36.80
2019-03-24T11:42:47.793Z,37.30
2019-03-24T11:45:17.276Z,37.90
2019-03-24T11:47:45.678Z,39.70
2019-03-24T11:50:14.197Z,40.00
2019-03-24T11:52:42.593Z,41.20
2019-03-24T11:55:11.122Z,41.90
2019-03-24T11:57:39.540Z,42.60
2019-03-24T12:00:13.689Z,43.40
2019-03-24T12:02:42.129Z,43.10
2019-03-24T12:05:10.528Z,44.50
2019-03-24T12:07:40.548Z,44.50
2019-03-24T12:10:09.414Z,45.50
2019-03-24T12:12:37.810Z,44.80
2019-03-24T12:15:06.911Z,45.10
2019-03-24T12:17:35.303Z,45.10
2019-03-24T12:20:07.685Z,45.60
2019-03-24T12:22:36.089Z,45.40
2019-03-24T12:25:05.007Z,45.60
2019-03-24T12:27:33.378Z,45.70
2019-03-24T12:30:01.818Z,46.40
2019-03-24T12:32:30.222Z,47.00
2019-03-24T12:34:58.643Z,47.50
2019-03-24T12:37:27.054Z,47.60
2019-03-24T12:39:57.933Z,48.10
2019-03-24T12:42:25.550Z,47.80
2019-03-24T12:44:53.943Z,48.30
2019-03-24T12:47:22.371Z,48.90
2019-03-24T12:49:51.417Z,49.50
2019-03-24T12:52:22.626Z,48.90
2019-03-24T12:54:51.041Z,49.70
2019-03-24T12:57:19.594Z,48.90
2019-03-24T12:59:47.968Z,49.00
2019-03-24T13:02:16.429Z,49.30
2019-03-24T13:04:44.846Z,50.90
2019-03-24T13:07:13.264Z,50.90
2019-03-24T13:09:41.632Z,50.40
2019-03-24T13:12:10.018Z,50.90
2019-03-24T13:14:38.399Z,49.90
2019-03-24T13:17:06.809Z,52.00
2019-03-24T13:19:36.281Z,50.90
2019-03-24T13:22:04.814Z,50.90
2019-03-24T13:24:33.176Z,51.30
2019-03-24T13:27:01.578Z,51.90
2019-03-24T13:29:29.968Z,51.00
2019-03-24T13:31:58.377Z,50.50
2019-03-24T13:34:26.743Z,49.80
2019-03-24T13:36:55.143Z,50.60
2019-03-24T13:39:23.519Z,49.70
2019-03-24T13:41:57.862Z,51.20
2019-03-24T13:44:26.226Z,49.60
2019-03-24T13:46:54.618Z,50.00
2019-03-24T13:49:22.991Z,49.30
2019-03-24T13:51:51.422Z,49.80
2019-03-24T13:54:19.804Z,50.00
2019-03-24T13:56:48.268Z,49.70
2019-03-24T13:59:16.707Z,49.30
2019-03-24T14:01:45.112Z,49.30
2019-03-24T14:04:13.487Z,50.20
2019-03-24T14:06:41.886Z,49.50
2019-03-24T14:09:11.539Z,49.70
2019-03-24T14:11:39.952Z,49.70
2019-03-24T14:14:08.337Z,50.40
2019-03-24T14:16:36.737Z,50.30
2019-03-24T14:19:05.115Z,51.30
2019-03-24T14:21:33.486Z,51.90
2019-03-24T14:24:01.816Z,52.20
2019-03-24T14:26:30.203Z,52.40
2019-03-24T14:28:58.598Z,51.00
2019-03-24T14:31:26.902Z,51.20
2019-03-24T14:33:55.302Z,51.10
2019-03-24T14:36:23.609Z,51.50
2019-03-24T14:38:52.010Z,50.50
2019-03-24T14:41:20.383Z,51.80
2019-03-24T14:43:48.702Z,50.60
2019-03-24T14:46:17.008Z,50.90
2019-03-24T14:48:45.407Z,51.40
2019-03-24T14:51:13.799Z,51.50
2019-03-24T14:53:42.183Z,52.20
2019-03-24T14:56:10.572Z,51.90
2019-03-24T14:58:39.024Z,52.20
2019-03-24T15:01:07.387Z,52.10
2019-03-24T15:03:35.710Z,52.20
2019-03-24T15:06:04.011Z,52.20
2019-03-24T15:08:32.420Z,52.60
2019-03-24T15:11:00.795Z,52.20
2019-03-24T15:13:29.205Z,52.30
2019-03-24T15:15:57.587Z,51.90
2019-03-24T15:18:26.001Z,51.60
2019-03-24T15:21:04.957Z,52.50
2019-03-24T15:23:24.436Z,51.60
2019-03-24T15:25:52.802Z,52.30
2019-03-24T15:28:21.134Z,52.20
2019-03-24T15:30:49.520Z,51.70
2019-03-24T15:33:17.917Z,52.10
2019-03-24T15:35:46.294Z,51.50
2019-03-24T15:38:14.717Z,51.60
2019-03-24T15:40:43.115Z,51.80
2019-03-24T15:43:12.328Z,51.10
2019-03-24T15:45:40.683Z,50.80
2019-03-24T15:48:09.013Z,51.30
2019-03-24T15:50:37.393Z,51.70
2019-03-24T15:53:05.791Z,51.60
2019-03-24T15:55:34.162Z,52.40
2019-03-24T15:58:02.936Z,51.70
2019-03-24T16:00:41.778Z,52.10
2019-03-24T16:03:10.183Z,53.10
2019-03-24T16:05:38.562Z,53.10
2019-03-24T16:08:06.959Z,52.80
2019-03-24T16:10:35.630Z,53.00
2019-03-24T16:13:04.089Z,53.00
2019-03-24T16:15:32.466Z,52.90
2019-03-24T16:18:01.238Z,53.50
2019-03-24T16:20:29.618Z,52.90
2019-03-24T16:22:58.027Z,53.20
2019-03-24T16:25:26.394Z,53.50
2019-03-24T16:27:54.708Z,53.50
2019-03-24T16:30:23.111Z,53.70
2019-03-24T16:32:51.523Z,54.30
2019-03-24T16:35:19.960Z,54.30
2019-03-24T16:37:48.397Z,54.60
2019-03-24T16:40:16.788Z,54.40
2019-03-24T16:42:45.167Z,54.20
2019-03-24T16:45:13.585Z,54.60
2019-03-24T16:47:41.951Z,55.00
2019-03-24T16:50:10.355Z,55.30
2019-03-24T16:52:38.797Z,55.70
2019-03-24T16:55:07.303Z,56.00
2019-03-24T16:57:35.703Z,56.10
2019-03-24T17:00:06.248Z,56.40
2019-03-24T17:02:34.627Z,57.10
2019-03-24T17:05:03.799Z,56.70
2019-03-24T17:07:32.180Z,57.00
2019-03-24T17:10:00.591Z,57.30
2019-03-24T17:12:28.962Z,57.50
2019-03-24T17:14:57.372Z,57.90
2019-03-24T17:17:25.761Z,57.70
2019-03-24T17:19:54.171Z,57.90
2019-03-24T17:22:22.557Z,58.30
2019-03-24T17:24:50.961Z,58.50
2019-03-24T17:27:19.415Z,58.70
2019-03-24T17:29:47.782Z,58.60
2019-03-24T17:32:16.158Z,58.80
2019-03-24T17:34:44.490Z,59.10
2019-03-24T17:37:12.816Z,59.40
2019-03-24T17:39:41.233Z,59.50
2019-03-24T17:42:09.735Z,59.80
2019-03-24T17:44:38.269Z,59.80
2019-03-24T17:47:06.642Z,59.80
2019-03-24T17:49:35.045Z,60.00
2019-03-24T17:52:03.351Z,59.70
2019-03-24T17:54:31.742Z,59.90
2019-03-24T17:57:00.039Z,59.70
2019-03-24T17:59:28.607Z,60.10
2019-03-24T18:01:56.983Z,60.40
2019-03-24T18:04:25.386Z,60.60
2019-03-24T18:06:53.825Z,60.70
2019-03-24T18:09:22.222Z,60.60
2019-03-24T18:11:50.531Z,60.70
2019-03-24T18:14:18.934Z,61.10
2019-03-24T18:16:47.261Z,61.50
2019-03-24T18:19:15.643Z,61.40
2019-03-24T18:21:44.059Z,61.70
2019-03-24T18:24:12.481Z,61.70
2019-03-24T18:26:44.680Z,61.60
2019-03-24T18:29:13.071Z,61.70
2019-03-24T18:31:41.468Z,61.90
2019-03-24T18:34:09.849Z,61.70
2019-03-24T18:36:38.369Z,61.20
2019-03-24T18:39:07.794Z,60.20
2019-03-24T18:41:36.242Z,59.70
2019-03-24T18:44:04.608Z,59.40
2019-03-24T18:46:34.892Z,59.50
2019-03-24T18:49:03.216Z,59.50
2019-03-24T18:51:37.694Z,59.90
2019-03-24T18:54:05.821Z,59.30
2019-03-24T18:56:54.805Z,59.10
2019-03-24T18:59:28.900Z,59.10
2019-03-24T19:01:59.281Z,59.30
2019-03-24T19:04:32.655Z,59.80
2019-03-24T19:07:05.234Z,59.90
2019-03-24T19:09:35.744Z,59.60
2019-03-24T19:12:03.793Z,59.20
2019-03-24T19:14:32.222Z,59.90
2019-03-24T19:17:00.607Z,59.60
2019-03-24T19:19:29.000Z,59.90
2019-03-24T19:21:59.739Z,59.80
2019-03-24T19:24:28.086Z,59.80
2019-03-24T19:26:56.473Z,59.70
2019-03-24T19:29:24.855Z,60.40
2019-03-24T19:31:53.269Z,60.40
2019-03-24T19:34:21.759Z,60.50
2019-03-24T19:36:50.178Z,61.10
2019-03-24T19:39:20.585Z,61.50
2019-03-24T19:41:48.603Z,61.30
2019-03-24T19:44:17.017Z,61.80
2019-03-24T19:46:47.022Z,62.00
2019-03-24T19:49:15.429Z,61.60
2019-03-24T19:51:43.890Z,61.60
2019-03-24T19:54:12.450Z,61.20
2019-03-24T19:56:40.816Z,61.40
2019-03-24T19:59:09.368Z,61.20
2019-03-24T20:01:37.804Z,61.50
2019-03-24T20:04:06.140Z,61.90
2019-03-24T20:06:34.600Z,61.90
2019-03-24T20:09:03.037Z,62.10
2019-03-24T20:11:31.540Z,61.80
2019-03-24T20:13:59.963Z,61.60
2019-03-24T20:16:28.324Z,61.10
2019-03-24T20:18:56.725Z,61.10
2019-03-24T20:21:25.160Z,60.20
2019-03-24T20:23:53.556Z,60.40
2019-03-24T20:26:21.977Z,60.50
2019-03-24T20:28:50.364Z,60.90
2019-03-24T20:31:18.762Z,60.40
2019-03-24T20:33:48.886Z,60.20
2019-03-24T20:36:17.376Z,60.30
2019-03-24T20:38:45.800Z,60.40
2019-03-24T20:41:14.134Z,60.20
2019-03-24T20:43:42.534Z,60.70
2019-03-24T20:46:10.912Z,60.70
2019-03-24T20:48:39.326Z,60.80
2019-03-24T20:51:07.806Z,60.40
2019-03-24T20:53:39.904Z,60.50
2019-03-24T20:56:08.305Z,60.40
2019-03-24T20:58:41.741Z,59.90
2019-03-24T21:01:18.665Z,59.70
2019-03-24T21:03:48.052Z,59.90
2019-03-24T21:06:18.989Z,60.10
2019-03-24T21:08:57.731Z,60.50
2019-03-24T21:11:28.663Z,60.80
2019-03-24T21:13:58.702Z,61.30
2019-03-24T21:16:27.051Z,61.20
2019-03-24T21:18:55.464Z,60.70
2019-03-24T21:21:23.852Z,61.10
2019-03-24T21:23:52.259Z,60.80
2019-03-24T21:26:20.625Z,61.00
2019-03-24T21:28:49.080Z,61.50
2019-03-24T21:31:17.433Z,61.60
2019-03-24T21:33:45.809Z,61.70
2019-03-24T21:36:14.183Z,61.80
2019-03-24T21:38:42.584Z,61.60
2019-03-24T21:41:10.954Z,61.90
2019-03-24T21:43:39.366Z,61.90
2019-03-24T21:46:07.752Z,61.80
2019-03-24T21:48:36.157Z,62.30
2019-03-24T21:51:04.709Z,62.60
2019-03-24T21:53:40.558Z,62.80
2019-03-24T21:56:03.178Z,61.60
2019-03-24T21:58:31.580Z,61.90
2019-03-24T22:00:59.962Z,61.50
2019-03-24T22:03:28.347Z,61.60
2019-03-24T22:05:56.730Z,61.10
2019-03-24T22:08:25.123Z,60.80
2019-03-24T22:10:53.500Z,60.80
2019-03-24T22:13:21.906Z,61.10
2019-03-24T22:15:50.222Z,61.10
2019-03-24T22:18:18.623Z,61.20
2019-03-24T22:20:49.205Z,61.20
2019-03-24T22:23:17.054Z,61.90
2019-03-24T22:25:45.440Z,62.10
2019-03-24T22:28:13.854Z,62.50
2019-03-24T22:30:42.226Z,62.50
2019-03-24T22:33:10.555Z,63.00
2019-03-24T22:35:38.942Z,63.30
2019-03-24T22:38:07.348Z,63.40
2019-03-24T22:40:35.736Z,63.00
2019-03-24T22:43:04.147Z,63.80
2019-03-24T22:45:32.524Z,63.40
2019-03-24T22:48:00.932Z,63.70
2019-03-24T22:50:29.306Z,63.80
2019-03-24T22:52:57.704Z,63.80
2019-03-24T22:55:26.075Z,63.90
2019-03-24T22:57:54.484Z,63.90
2019-03-24T23:00:24.503Z,63.80
2019-03-24T23:02:52.900Z,64.10
2019-03-24T23:05:21.285Z,63.70
2019-03-24T23:07:49.658Z,64.00
2019-03-24T23:10:18.071Z,63.70
2019-03-24T23:12:46.443Z,63.90
2019-03-24T23:15:14.844Z,64.30
2019-03-24T23:17:43.232Z,64.00
2019-03-24T23:20:11.640Z,63.60
2019-03-24T23:22:40.029Z,63.60
2019-03-24T23:25:08.448Z,63.60
2019-03-24T23:27:36.840Z,63.10
2019-03-24T23:30:08.299Z,63.90
2019-03-24T23:32:36.684Z,62.60
2019-03-24T23:35:06.758Z,62.10
2019-03-24T23:37:35.122Z,62.40
2019-03-24T23:40:04.583Z,62.50
2019-03-24T23:42:32.960Z,62.60
2019-03-24T23:45:01.370Z,62.70
2019-03-24T23:47:29.738Z,62.80
2019-03-24T23:49:58.135Z,62.80
2019-03-24T23:52:26.502Z,62.60
2019-03-24T23:54:54.914Z,62.60
2019-03-24T23:57:23.282Z,62.30
2019-03-24T23:59:51.674Z,62.40
